sensor_id;sensor_type;location;lat;lon;timestamp;P1;durP1;ratioP1;P2;durP2;ratioP2
11524;SDS011;5819;49.648;8.330;2022-12-10T00:01:14;33.00;;;20.73;;
11524;SDS011;5819;49.648;8.330;2022-12-10T00:03:45;28.73;;;19.37;;
11524;SDS011;5819;49.648;8.330;2022-12-10T00:06:13;29.50;;;20.60;;
11524;SDS011;5819;49.648;8.330;2022-12-10T00:08:43;29.77;;;20.33;;
11524;SDS011;5819;49.648;8.330;2022-12-10T00:11:12;27.23;;;18.80;;
11524;SDS011;5819;49.648;8.330;2022-12-10T00:13:42;26.23;;;19.00;;
11524;SDS011;5819;49.648;8.330;2022-12-10T00:16:11;29.93;;;19.57;;
11524;SDS011;5819;49.648;8.330;2022-12-10T00:18:42;28.23;;;19.60;;
11524;SDS011;5819;49.648;8.330;2022-12-10T00:21:11;29.37;;;19.90;;
11524;SDS011;5819;49.648;8.330;2022-12-10T00:23:41;27.53;;;19.73;;
11524;SDS011;5819;49.648;8.330;2022-12-10T00:26:10;29.03;;;19.87;;
11524;SDS011;5819;49.648;8.330;2022-12-10T00:28:40;26.53;;;19.27;;
11524;SDS011;5819;49.648;8.330;2022-12-10T00:31:10;28.57;;;20.30;;
11524;SDS011;5819;49.648;8.330;2022-12-10T00:33:40;29.30;;;20.20;;
11524;SDS011;5819;49.648;8.330;2022-12-10T00:36:11;29.63;;;20.53;;
11524;SDS011;5819;49.648;8.330;2022-12-10T00:38:40;29.97;;;20.20;;
11524;SDS011;5819;49.648;8.330;2022-12-10T00:41:10;32.43;;;19.97;;
11524;SDS011;5819;49.648;8.330;2022-12-10T00:43:39;30.47;;;20.73;;
11524;SDS011;5819;49.648;8.330;2022-12-10T00:46:09;30.33;;;19.70;;
11524;SDS011;5819;49.648;8.330;2022-12-10T00:48:40;30.50;;;20.60;;
11524;SDS011;5819;49.648;8.330;2022-12-10T00:51:09;28.77;;;19.67;;
11524;SDS011;5819;49.648;8.330;2022-12-10T00:53:40;29.77;;;19.80;;
11524;SDS011;5819;49.648;8.330;2022-12-10T00:56:10;31.77;;;20.67;;
11524;SDS011;5819;49.648;8.330;2022-12-10T00:58:39;32.30;;;21.23;;
11524;SDS011;5819;49.648;8.330;2022-12-10T01:01:09;31.47;;;21.07;;
11524;SDS011;5819;49.648;8.330;2022-12-10T01:03:38;28.27;;;19.50;;
11524;SDS011;5819;49.648;8.330;2022-12-10T01:06:09;29.60;;;20.23;;
11524;SDS011;5819;49.648;8.330;2022-12-10T01:08:37;29.80;;;20.67;;
11524;SDS011;5819;49.648;8.330;2022-12-10T01:11:06;28.60;;;19.07;;
11524;SDS011;5819;49.648;8.330;2022-12-10T01:13:35;28.73;;;20.13;;
11524;SDS011;5819;49.648;8.330;2022-12-10T01:16:04;31.20;;;20.33;;
11524;SDS011;5819;49.648;8.330;2022-12-10T01:18:34;29.87;;;19.87;;
11524;SDS011;5819;49.648;8.330;2022-12-10T01:21:02;27.97;;;19.40;;
11524;SDS011;5819;49.648;8.330;2022-12-10T01:23:33;28.20;;;19.47;;
11524;SDS011;5819;49.648;8.330;2022-12-10T01:26:03;29.77;;;20.33;;
11524;SDS011;5819;49.648;8.330;2022-12-10T01:28:34;30.20;;;20.70;;
11524;SDS011;5819;49.648;8.330;2022-12-10T01:31:04;27.77;;;19.83;;
11524;SDS011;5819;49.648;8.330;2022-12-10T01:33:34;29.73;;;20.63;;
11524;SDS011;5819;49.648;8.330;2022-12-10T01:36:03;32.17;;;21.13;;
11524;SDS011;5819;49.648;8.330;2022-12-10T01:38:33;29.70;;;19.67;;
11524;SDS011;5819;49.648;8.330;2022-12-10T01:41:03;28.80;;;19.63;;
11524;SDS011;5819;49.648;8.330;2022-12-10T01:43:48;31.73;;;21.30;;
11524;SDS011;5819;49.648;8.330;2022-12-10T01:46:18;29.67;;;20.73;;
11524;SDS011;5819;49.648;8.330;2022-12-10T01:48:47;30.97;;;19.67;;
11524;SDS011;5819;49.648;8.330;2022-12-10T01:51:16;30.10;;;20.80;;
11524;SDS011;5819;49.648;8.330;2022-12-10T02:05:23;35.03;;;20.70;;
11524;SDS011;5819;49.648;8.330;2022-12-10T02:07:57;33.73;;;20.80;;
11524;SDS011;5819;49.648;8.330;2022-12-10T02:10:44;29.37;;;19.10;;
11524;SDS011;5819;49.648;8.330;2022-12-10T02:13:24;29.60;;;20.53;;
11524;SDS011;5819;49.648;8.330;2022-12-10T02:15:58;33.77;;;21.33;;
11524;SDS011;5819;49.648;8.330;2022-12-10T02:18:31;33.37;;;21.57;;
11524;SDS011;5819;49.648;8.330;2022-12-10T02:21:05;30.27;;;20.27;;
11524;SDS011;5819;49.648;8.330;2022-12-10T02:23:38;32.03;;;20.40;;
11524;SDS011;5819;49.648;8.330;2022-12-10T02:26:10;33.97;;;21.33;;
11524;SDS011;5819;49.648;8.330;2022-12-10T02:28:45;29.37;;;20.00;;
11524;SDS011;5819;49.648;8.330;2022-12-10T02:31:21;30.53;;;20.97;;
11524;SDS011;5819;49.648;8.330;2022-12-10T02:33:55;32.00;;;21.47;;
11524;SDS011;5819;49.648;8.330;2022-12-10T02:36:26;32.20;;;21.27;;
11524;SDS011;5819;49.648;8.330;2022-12-10T02:38:58;33.93;;;21.07;;
11524;SDS011;5819;49.648;8.330;2022-12-10T02:41:30;31.13;;;19.83;;
11524;SDS011;5819;49.648;8.330;2022-12-10T02:44:03;32.33;;;21.27;;
11524;SDS011;5819;49.648;8.330;2022-12-10T02:46:37;33.03;;;21.00;;
11524;SDS011;5819;49.648;8.330;2022-12-10T02:49:09;31.30;;;20.20;;
11524;SDS011;5819;49.648;8.330;2022-12-10T02:51:39;32.53;;;20.70;;
11524;SDS011;5819;49.648;8.330;2022-12-10T02:57:02;31.03;;;20.77;;
11524;SDS011;5819;49.648;8.330;2022-12-10T02:59:40;33.53;;;20.97;;
11524;SDS011;5819;49.648;8.330;2022-12-10T03:02:19;28.37;;;19.37;;
11524;SDS011;5819;49.648;8.330;2022-12-10T03:04:52;31.67;;;20.60;;
11524;SDS011;5819;49.648;8.330;2022-12-10T03:07:25;33.83;;;21.80;;
11524;SDS011;5819;49.648;8.330;2022-12-10T03:09:58;31.97;;;20.90;;
11524;SDS011;5819;49.648;8.330;2022-12-10T03:12:32;31.50;;;21.57;;
11524;SDS011;5819;49.648;8.330;2022-12-10T03:15:05;35.00;;;21.83;;
11524;SDS011;5819;49.648;8.330;2022-12-10T03:17:38;32.47;;;21.60;;
11524;SDS011;5819;49.648;8.330;2022-12-10T03:20:09;32.07;;;21.03;;
11524;SDS011;5819;49.648;8.330;2022-12-10T03:22:40;31.90;;;20.43;;
11524;SDS011;5819;49.648;8.330;2022-12-10T03:25:12;30.07;;;21.10;;
11524;SDS011;5819;49.648;8.330;2022-12-10T03:27:42;29.63;;;19.73;;
11524;SDS011;5819;49.648;8.330;2022-12-10T03:30:13;29.90;;;20.10;;
11524;SDS011;5819;49.648;8.330;2022-12-10T03:32:42;28.93;;;19.57;;
11524;SDS011;5819;49.648;8.330;2022-12-10T03:35:11;29.77;;;19.83;;
11524;SDS011;5819;49.648;8.330;2022-12-10T03:37:41;31.27;;;19.77;;
11524;SDS011;5819;49.648;8.330;2022-12-10T03:40:10;28.97;;;19.13;;
11524;SDS011;5819;49.648;8.330;2022-12-10T03:42:39;30.20;;;19.43;;
11524;SDS011;5819;49.648;8.330;2022-12-10T03:45:07;30.67;;;19.27;;
11524;SDS011;5819;49.648;8.330;2022-12-10T03:47:35;25.90;;;18.30;;
11524;SDS011;5819;49.648;8.330;2022-12-10T03:50:05;27.00;;;18.10;;
11524;SDS011;5819;49.648;8.330;2022-12-10T03:52:34;26.80;;;17.60;;
11524;SDS011;5819;49.648;8.330;2022-12-10T03:55:02;28.83;;;18.80;;
11524;SDS011;5819;49.648;8.330;2022-12-10T03:57:30;26.53;;;18.53;;
11524;SDS011;5819;49.648;8.330;2022-12-10T03:59:58;26.47;;;18.47;;
11524;SDS011;5819;49.648;8.330;2022-12-10T04:02:26;26.47;;;18.20;;
11524;SDS011;5819;49.648;8.330;2022-12-10T04:04:54;26.93;;;17.77;;
11524;SDS011;5819;49.648;8.330;2022-12-10T04:07:24;28.50;;;18.60;;
11524;SDS011;5819;49.648;8.330;2022-12-10T04:09:51;26.63;;;17.37;;
11524;SDS011;5819;49.648;8.330;2022-12-10T04:12:19;28.87;;;18.83;;
11524;SDS011;5819;49.648;8.330;2022-12-10T04:14:47;28.60;;;18.63;;
11524;SDS011;5819;49.648;8.330;2022-12-10T04:17:32;28.53;;;18.37;;
11524;SDS011;5819;49.648;8.330;2022-12-10T04:20:00;23.70;;;17.33;;
11524;SDS011;5819;49.648;8.330;2022-12-10T04:22:30;24.67;;;16.53;;
11524;SDS011;5819;49.648;8.330;2022-12-10T04:25:16;25.20;;;16.57;;
11524;SDS011;5819;49.648;8.330;2022-12-10T04:28:02;27.50;;;17.40;;
11524;SDS011;5819;49.648;8.330;2022-12-10T04:30:29;29.00;;;18.30;;
11524;SDS011;5819;49.648;8.330;2022-12-10T04:32:57;27.00;;;17.60;;
11524;SDS011;5819;49.648;8.330;2022-12-10T04:35:25;26.87;;;18.00;;
11524;SDS011;5819;49.648;8.330;2022-12-10T04:37:54;28.03;;;18.70;;
11524;SDS011;5819;49.648;8.330;2022-12-10T04:40:22;24.00;;;17.23;;
11524;SDS011;5819;49.648;8.330;2022-12-10T04:42:50;26.13;;;17.63;;
11524;SDS011;5819;49.648;8.330;2022-12-10T04:45:18;25.53;;;17.33;;
11524;SDS011;5819;49.648;8.330;2022-12-10T04:47:47;25.23;;;17.20;;
11524;SDS011;5819;49.648;8.330;2022-12-10T04:50:15;24.80;;;17.13;;
11524;SDS011;5819;49.648;8.330;2022-12-10T04:52:43;25.00;;;16.97;;
11524;SDS011;5819;49.648;8.330;2022-12-10T04:55:12;24.33;;;16.60;;
11524;SDS011;5819;49.648;8.330;2022-12-10T04:57:42;22.27;;;15.33;;
11524;SDS011;5819;49.648;8.330;2022-12-10T05:00:10;22.37;;;16.30;;
11524;SDS011;5819;49.648;8.330;2022-12-10T05:02:39;22.17;;;16.07;;
11524;SDS011;5819;49.648;8.330;2022-12-10T05:05:07;21.33;;;14.90;;
11524;SDS011;5819;49.648;8.330;2022-12-10T05:07:35;22.33;;;14.93;;
11524;SDS011;5819;49.648;8.330;2022-12-10T05:10:03;22.67;;;14.73;;
11524;SDS011;5819;49.648;8.330;2022-12-10T05:12:33;20.13;;;14.27;;
11524;SDS011;5819;49.648;8.330;2022-12-10T05:15:01;21.10;;;14.87;;
11524;SDS011;5819;49.648;8.330;2022-12-10T05:17:29;20.33;;;13.83;;
11524;SDS011;5819;49.648;8.330;2022-12-10T05:19:57;22.00;;;14.20;;
11524;SDS011;5819;49.648;8.330;2022-12-10T05:22:24;19.27;;;14.10;;
11524;SDS011;5819;49.648;8.330;2022-12-10T05:25:09;21.73;;;14.93;;
11524;SDS011;5819;49.648;8.330;2022-12-10T05:27:38;21.60;;;14.63;;
11524;SDS011;5819;49.648;8.330;2022-12-10T05:30:08;20.67;;;14.67;;
11524;SDS011;5819;49.648;8.330;2022-12-10T05:32:36;22.03;;;13.80;;
11524;SDS011;5819;49.648;8.330;2022-12-10T05:35:05;20.77;;;14.27;;
11524;SDS011;5819;49.648;8.330;2022-12-10T05:37:33;19.63;;;14.13;;
11524;SDS011;5819;49.648;8.330;2022-12-10T05:40:01;19.67;;;13.83;;
11524;SDS011;5819;49.648;8.330;2022-12-10T05:42:30;23.20;;;14.90;;
11524;SDS011;5819;49.648;8.330;2022-12-10T05:44:58;21.40;;;14.57;;
11524;SDS011;5819;49.648;8.330;2022-12-10T05:47:26;21.93;;;14.80;;
11524;SDS011;5819;49.648;8.330;2022-12-10T05:49:54;21.10;;;14.43;;
11524;SDS011;5819;49.648;8.330;2022-12-10T05:52:22;21.37;;;15.27;;
11524;SDS011;5819;49.648;8.330;2022-12-10T05:54:50;18.93;;;13.90;;
11524;SDS011;5819;49.648;8.330;2022-12-10T05:57:18;22.43;;;14.90;;
11524;SDS011;5819;49.648;8.330;2022-12-10T05:59:45;21.20;;;15.33;;
11524;SDS011;5819;49.648;8.330;2022-12-10T06:02:14;20.47;;;14.63;;
11524;SDS011;5819;49.648;8.330;2022-12-10T06:04:43;22.13;;;15.67;;
11524;SDS011;5819;49.648;8.330;2022-12-10T06:07:10;22.30;;;15.90;;
11524;SDS011;5819;49.648;8.330;2022-12-10T06:09:38;20.97;;;14.97;;
11524;SDS011;5819;49.648;8.330;2022-12-10T06:12:06;21.73;;;14.13;;
11524;SDS011;5819;49.648;8.330;2022-12-10T06:14:34;21.97;;;14.80;;
11524;SDS011;5819;49.648;8.330;2022-12-10T06:17:02;21.63;;;14.47;;
11524;SDS011;5819;49.648;8.330;2022-12-10T06:19:31;19.23;;;14.03;;
11524;SDS011;5819;49.648;8.330;2022-12-10T06:21:59;21.60;;;15.17;;
11524;SDS011;5819;49.648;8.330;2022-12-10T06:24:27;20.17;;;15.30;;
11524;SDS011;5819;49.648;8.330;2022-12-10T06:26:56;21.97;;;15.07;;
11524;SDS011;5819;49.648;8.330;2022-12-10T06:29:24;19.03;;;13.83;;
11524;SDS011;5819;49.648;8.330;2022-12-10T06:31:51;20.33;;;14.87;;
11524;SDS011;5819;49.648;8.330;2022-12-10T06:34:21;22.73;;;15.87;;
11524;SDS011;5819;49.648;8.330;2022-12-10T06:36:50;22.80;;;15.10;;
11524;SDS011;5819;49.648;8.330;2022-12-10T06:39:18;21.60;;;15.20;;
11524;SDS011;5819;49.648;8.330;2022-12-10T06:41:45;23.70;;;14.67;;
11524;SDS011;5819;49.648;8.330;2022-12-10T06:44:13;23.33;;;15.23;;
11524;SDS011;5819;49.648;8.330;2022-12-10T06:46:41;21.63;;;14.23;;
11524;SDS011;5819;49.648;8.330;2022-12-10T06:49:09;20.50;;;14.70;;
11524;SDS011;5819;49.648;8.330;2022-12-10T06:51:36;20.63;;;15.07;;
11524;SDS011;5819;49.648;8.330;2022-12-10T06:54:06;22.67;;;15.93;;
11524;SDS011;5819;49.648;8.330;2022-12-10T06:56:34;23.17;;;14.63;;
11524;SDS011;5819;49.648;8.330;2022-12-10T06:59:03;19.90;;;15.03;;
11524;SDS011;5819;49.648;8.330;2022-12-10T07:01:32;20.37;;;14.50;;
11524;SDS011;5819;49.648;8.330;2022-12-10T07:04:00;19.83;;;15.13;;
11524;SDS011;5819;49.648;8.330;2022-12-10T07:06:30;20.37;;;14.73;;
11524;SDS011;5819;49.648;8.330;2022-12-10T07:08:58;21.50;;;14.80;;
11524;SDS011;5819;49.648;8.330;2022-12-10T07:11:28;20.80;;;14.93;;
11524;SDS011;5819;49.648;8.330;2022-12-10T07:13:57;20.50;;;14.23;;
11524;SDS011;5819;49.648;8.330;2022-12-10T07:16:25;19.50;;;14.50;;
11524;SDS011;5819;49.648;8.330;2022-12-10T07:18:55;21.80;;;16.10;;
11524;SDS011;5819;49.648;8.330;2022-12-10T07:21:25;21.27;;;14.77;;
11524;SDS011;5819;49.648;8.330;2022-12-10T07:23:55;23.73;;;15.37;;
11524;SDS011;5819;49.648;8.330;2022-12-10T07:26:25;21.73;;;15.47;;
11524;SDS011;5819;49.648;8.330;2022-12-10T07:28:54;21.87;;;16.07;;
11524;SDS011;5819;49.648;8.330;2022-12-10T07:31:22;21.17;;;14.53;;
11524;SDS011;5819;49.648;8.330;2022-12-10T07:33:50;24.70;;;14.37;;
11524;SDS011;5819;49.648;8.330;2022-12-10T07:36:20;22.10;;;15.20;;
11524;SDS011;5819;49.648;8.330;2022-12-10T07:38:49;21.37;;;14.93;;
11524;SDS011;5819;49.648;8.330;2022-12-10T07:41:17;22.67;;;15.33;;
11524;SDS011;5819;49.648;8.330;2022-12-10T07:43:46;20.30;;;15.17;;
11524;SDS011;5819;49.648;8.330;2022-12-10T07:46:17;19.33;;;14.67;;
11524;SDS011;5819;49.648;8.330;2022-12-10T07:48:47;18.13;;;14.07;;
11524;SDS011;5819;49.648;8.330;2022-12-10T07:51:16;18.20;;;13.23;;
11524;SDS011;5819;49.648;8.330;2022-12-10T07:53:47;17.73;;;12.57;;
11524;SDS011;5819;49.648;8.330;2022-12-10T07:56:15;17.43;;;12.37;;
11524;SDS011;5819;49.648;8.330;2022-12-10T07:58:43;16.43;;;12.27;;
11524;SDS011;5819;49.648;8.330;2022-12-10T08:01:13;15.97;;;12.17;;
11524;SDS011;5819;49.648;8.330;2022-12-10T08:03:43;19.93;;;13.00;;
11524;SDS011;5819;49.648;8.330;2022-12-10T08:06:13;17.63;;;12.93;;
11524;SDS011;5819;49.648;8.330;2022-12-10T08:08:44;18.27;;;13.67;;
11524;SDS011;5819;49.648;8.330;2022-12-10T08:11:13;18.93;;;13.37;;
11524;SDS011;5819;49.648;8.330;2022-12-10T08:13:42;18.77;;;13.77;;
11524;SDS011;5819;49.648;8.330;2022-12-10T08:16:11;16.80;;;12.37;;
11524;SDS011;5819;49.648;8.330;2022-12-10T08:18:40;18.33;;;13.10;;
11524;SDS011;5819;49.648;8.330;2022-12-10T08:21:11;21.60;;;14.10;;
11524;SDS011;5819;49.648;8.330;2022-12-10T08:23:40;20.07;;;14.00;;
11524;SDS011;5819;49.648;8.330;2022-12-10T08:26:09;18.80;;;13.17;;
11524;SDS011;5819;49.648;8.330;2022-12-10T08:28:39;21.73;;;13.43;;
11524;SDS011;5819;49.648;8.330;2022-12-10T08:31:07;21.13;;;14.73;;
11524;SDS011;5819;49.648;8.330;2022-12-10T08:33:37;20.13;;;14.67;;
11524;SDS011;5819;49.648;8.330;2022-12-10T08:36:06;22.43;;;15.70;;
11524;SDS011;5819;49.648;8.330;2022-12-10T08:38:38;21.90;;;15.37;;
11524;SDS011;5819;49.648;8.330;2022-12-10T08:41:07;19.57;;;14.10;;
11524;SDS011;5819;49.648;8.330;2022-12-10T08:43:35;18.17;;;13.43;;
11524;SDS011;5819;49.648;8.330;2022-12-10T08:46:04;20.07;;;13.67;;
11524;SDS011;5819;49.648;8.330;2022-12-10T08:48:33;19.47;;;15.03;;
11524;SDS011;5819;49.648;8.330;2022-12-10T08:51:01;18.53;;;13.97;;
11524;SDS011;5819;49.648;8.330;2022-12-10T08:53:29;17.83;;;13.60;;
11524;SDS011;5819;49.648;8.330;2022-12-10T08:55:59;19.13;;;14.17;;
11524;SDS011;5819;49.648;8.330;2022-12-10T08:58:26;20.80;;;14.90;;
11524;SDS011;5819;49.648;8.330;2022-12-10T09:00:54;18.07;;;13.77;;
11524;SDS011;5819;49.648;8.330;2022-12-10T09:03:22;19.67;;;13.73;;
11524;SDS011;5819;49.648;8.330;2022-12-10T09:05:50;15.67;;;11.90;;
11524;SDS011;5819;49.648;8.330;2022-12-10T09:08:18;15.13;;;12.20;;
11524;SDS011;5819;49.648;8.330;2022-12-10T09:10:46;17.40;;;12.60;;
11524;SDS011;5819;49.648;8.330;2022-12-10T09:13:15;15.53;;;11.80;;
11524;SDS011;5819;49.648;8.330;2022-12-10T09:15:48;14.87;;;11.50;;
11524;SDS011;5819;49.648;8.330;2022-12-10T09:18:18;17.17;;;11.53;;
11524;SDS011;5819;49.648;8.330;2022-12-10T09:20:46;17.97;;;11.13;;
11524;SDS011;5819;49.648;8.330;2022-12-10T09:23:14;15.00;;;11.33;;
11524;SDS011;5819;49.648;8.330;2022-12-10T09:25:41;15.83;;;11.13;;
11524;SDS011;5819;49.648;8.330;2022-12-10T09:28:09;14.90;;;10.63;;
11524;SDS011;5819;49.648;8.330;2022-12-10T09:30:38;14.70;;;11.33;;
11524;SDS011;5819;49.648;8.330;2022-12-10T09:33:06;13.97;;;11.33;;
11524;SDS011;5819;49.648;8.330;2022-12-10T09:35:34;14.27;;;10.80;;
11524;SDS011;5819;49.648;8.330;2022-12-10T09:38:06;14.20;;;11.10;;
11524;SDS011;5819;49.648;8.330;2022-12-10T09:40:35;12.73;;;10.70;;
11524;SDS011;5819;49.648;8.330;2022-12-10T09:43:10;14.73;;;11.33;;
11524;SDS011;5819;49.648;8.330;2022-12-10T09:45:46;21.20;;;12.30;;
11524;SDS011;5819;49.648;8.330;2022-12-10T09:48:25;14.00;;;10.67;;
11524;SDS011;5819;49.648;8.330;2022-12-10T09:51:01;13.90;;;11.20;;
11524;SDS011;5819;49.648;8.330;2022-12-10T09:53:33;14.40;;;11.00;;
11524;SDS011;5819;49.648;8.330;2022-12-10T09:56:03;16.23;;;11.40;;
11524;SDS011;5819;49.648;8.330;2022-12-10T09:58:32;14.63;;;11.47;;
11524;SDS011;5819;49.648;8.330;2022-12-10T10:01:05;14.87;;;11.27;;
11524;SDS011;5819;49.648;8.330;2022-12-10T10:03:38;15.30;;;11.37;;
11524;SDS011;5819;49.648;8.330;2022-12-10T10:06:08;15.30;;;10.67;;
11524;SDS011;5819;49.648;8.330;2022-12-10T10:08:39;14.33;;;11.23;;
11524;SDS011;5819;49.648;8.330;2022-12-10T10:11:10;15.57;;;11.57;;
11524;SDS011;5819;49.648;8.330;2022-12-10T10:13:39;16.97;;;11.67;;
11524;SDS011;5819;49.648;8.330;2022-12-10T10:16:18;14.70;;;11.07;;
11524;SDS011;5819;49.648;8.330;2022-12-10T10:18:50;15.43;;;11.37;;
11524;SDS011;5819;49.648;8.330;2022-12-10T10:21:24;16.73;;;12.00;;
11524;SDS011;5819;49.648;8.330;2022-12-10T10:23:54;16.47;;;11.63;;
11524;SDS011;5819;49.648;8.330;2022-12-10T10:26:23;15.03;;;11.47;;
11524;SDS011;5819;49.648;8.330;2022-12-10T10:28:53;19.50;;;14.13;;
11524;SDS011;5819;49.648;8.330;2022-12-10T10:31:25;17.60;;;12.83;;
11524;SDS011;5819;49.648;8.330;2022-12-10T10:33:56;20.73;;;15.13;;
11524;SDS011;5819;49.648;8.330;2022-12-10T10:36:26;15.30;;;10.97;;
11524;SDS011;5819;49.648;8.330;2022-12-10T10:38:56;18.13;;;10.67;;
11524;SDS011;5819;49.648;8.330;2022-12-10T10:41:24;14.07;;;10.97;;
11524;SDS011;5819;49.648;8.330;2022-12-10T10:43:54;14.10;;;10.83;;
11524;SDS011;5819;49.648;8.330;2022-12-10T10:46:29;12.30;;;10.10;;
11524;SDS011;5819;49.648;8.330;2022-12-10T10:49:12;14.87;;;10.83;;
11524;SDS011;5819;49.648;8.330;2022-12-10T10:51:45;13.87;;;10.97;;
11524;SDS011;5819;49.648;8.330;2022-12-10T10:54:16;14.73;;;11.07;;
11524;SDS011;5819;49.648;8.330;2022-12-10T10:57:01;14.23;;;10.13;;
11524;SDS011;5819;49.648;8.330;2022-12-10T10:59:31;14.40;;;10.43;;
11524;SDS011;5819;49.648;8.330;2022-12-10T11:02:04;14.57;;;10.93;;
11524;SDS011;5819;49.648;8.330;2022-12-10T11:04:46;14.13;;;10.30;;
11524;SDS011;5819;49.648;8.330;2022-12-10T11:07:19;13.43;;;10.53;;
11524;SDS011;5819;49.648;8.330;2022-12-10T11:09:49;13.70;;;10.17;;
11524;SDS011;5819;49.648;8.330;2022-12-10T11:12:30;13.50;;;10.80;;
11524;SDS011;5819;49.648;8.330;2022-12-10T11:15:04;14.47;;;10.77;;
11524;SDS011;5819;49.648;8.330;2022-12-10T11:17:57;13.67;;;10.60;;
11524;SDS011;5819;49.648;8.330;2022-12-10T11:20:26;14.53;;;11.17;;
11524;SDS011;5819;49.648;8.330;2022-12-10T11:22:56;16.23;;;11.17;;
11524;SDS011;5819;49.648;8.330;2022-12-10T11:25:29;15.73;;;11.57;;
11524;SDS011;5819;49.648;8.330;2022-12-10T11:28:08;15.97;;;11.97;;
11524;SDS011;5819;49.648;8.330;2022-12-10T11:30:42;13.13;;;10.37;;
11524;SDS011;5819;49.648;8.330;2022-12-10T11:33:19;14.63;;;11.23;;
11524;SDS011;5819;49.648;8.330;2022-12-10T11:35:57;13.60;;;10.47;;
11524;SDS011;5819;49.648;8.330;2022-12-10T11:38:36;20.83;;;12.27;;
11524;SDS011;5819;49.648;8.330;2022-12-10T11:41:15;15.53;;;10.70;;
11524;SDS011;5819;49.648;8.330;2022-12-10T11:43:54;16.70;;;11.87;;
11524;SDS011;5819;49.648;8.330;2022-12-10T11:46:46;15.87;;;11.33;;
11524;SDS011;5819;49.648;8.330;2022-12-10T11:49:29;16.40;;;11.57;;
11524;SDS011;5819;49.648;8.330;2022-12-10T11:52:06;13.83;;;11.07;;
11524;SDS011;5819;49.648;8.330;2022-12-10T11:54:54;13.87;;;10.57;;
11524;SDS011;5819;49.648;8.330;2022-12-10T11:57:38;16.10;;;12.07;;
11524;SDS011;5819;49.648;8.330;2022-12-10T12:00:14;16.47;;;12.07;;
11524;SDS011;5819;49.648;8.330;2022-12-10T12:03:03;14.07;;;11.03;;
11524;SDS011;5819;49.648;8.330;2022-12-10T12:05:50;15.50;;;12.03;;
11524;SDS011;5819;49.648;8.330;2022-12-10T12:08:36;15.63;;;11.77;;
11524;SDS011;5819;49.648;8.330;2022-12-10T12:14:06;16.83;;;12.00;;
11524;SDS011;5819;49.648;8.330;2022-12-10T12:16:40;15.43;;;12.93;;
11524;SDS011;5819;49.648;8.330;2022-12-10T12:19:13;14.73;;;11.70;;
11524;SDS011;5819;49.648;8.330;2022-12-10T12:21:47;15.60;;;12.60;;
11524;SDS011;5819;49.648;8.330;2022-12-10T12:24:19;15.70;;;12.30;;
11524;SDS011;5819;49.648;8.330;2022-12-10T12:26:50;15.83;;;12.37;;
11524;SDS011;5819;49.648;8.330;2022-12-10T12:29:23;17.00;;;12.73;;
11524;SDS011;5819;49.648;8.330;2022-12-10T12:32:03;17.27;;;13.03;;
11524;SDS011;5819;49.648;8.330;2022-12-10T12:34:37;15.33;;;11.87;;
11524;SDS011;5819;49.648;8.330;2022-12-10T12:37:17;15.53;;;12.60;;
11524;SDS011;5819;49.648;8.330;2022-12-10T12:39:50;15.37;;;11.80;;
11524;SDS011;5819;49.648;8.330;2022-12-10T12:42:27;18.73;;;13.37;;
11524;SDS011;5819;49.648;8.330;2022-12-10T12:45:01;16.20;;;13.30;;
11524;SDS011;5819;49.648;8.330;2022-12-10T12:47:37;16.97;;;13.83;;
11524;SDS011;5819;49.648;8.330;2022-12-10T12:50:11;15.87;;;12.57;;
11524;SDS011;5819;49.648;8.330;2022-12-10T12:52:53;16.53;;;13.00;;
11524;SDS011;5819;49.648;8.330;2022-12-10T12:55:26;19.07;;;12.87;;
11524;SDS011;5819;49.648;8.330;2022-12-10T12:58:01;16.73;;;12.10;;
11524;SDS011;5819;49.648;8.330;2022-12-10T13:00:41;17.80;;;13.47;;
11524;SDS011;5819;49.648;8.330;2022-12-10T13:03:18;16.27;;;12.33;;
11524;SDS011;5819;49.648;8.330;2022-12-10T13:05:54;16.07;;;11.77;;
11524;SDS011;5819;49.648;8.330;2022-12-10T13:08:29;14.10;;;11.37;;
11524;SDS011;5819;49.648;8.330;2022-12-10T13:10:59;18.10;;;13.70;;
11524;SDS011;5819;49.648;8.330;2022-12-10T13:14:02;17.63;;;13.33;;
11524;SDS011;5819;49.648;8.330;2022-12-10T13:16:46;16.50;;;12.43;;
11524;SDS011;5819;49.648;8.330;2022-12-10T13:19:22;13.67;;;11.60;;
11524;SDS011;5819;49.648;8.330;2022-12-10T13:22:00;14.40;;;12.27;;
11524;SDS011;5819;49.648;8.330;2022-12-10T13:24:46;16.63;;;11.87;;
11524;SDS011;5819;49.648;8.330;2022-12-10T13:27:32;14.70;;;11.77;;
11524;SDS011;5819;49.648;8.330;2022-12-10T13:30:03;15.00;;;11.93;;
11524;SDS011;5819;49.648;8.330;2022-12-10T13:32:53;16.67;;;11.93;;
11524;SDS011;5819;49.648;8.330;2022-12-10T13:35:33;15.23;;;11.83;;
11524;SDS011;5819;49.648;8.330;2022-12-10T13:38:17;15.10;;;11.97;;
11524;SDS011;5819;49.648;8.330;2022-12-10T13:41:01;15.17;;;12.87;;
11524;SDS011;5819;49.648;8.330;2022-12-10T13:43:52;15.27;;;12.17;;
11524;SDS011;5819;49.648;8.330;2022-12-10T13:46:53;11.87;;;9.80;;
11524;SDS011;5819;49.648;8.330;2022-12-10T13:49:24;12.13;;;8.93;;
11524;SDS011;5819;49.648;8.330;2022-12-10T13:51:57;12.10;;;9.20;;
11524;SDS011;5819;49.648;8.330;2022-12-10T13:57:41;13.13;;;10.27;;
11524;SDS011;5819;49.648;8.330;2022-12-10T14:00:20;12.83;;;10.30;;
11524;SDS011;5819;49.648;8.330;2022-12-10T14:02:55;13.67;;;10.50;;
11524;SDS011;5819;49.648;8.330;2022-12-10T14:05:39;15.27;;;10.93;;
11524;SDS011;5819;49.648;8.330;2022-12-10T14:08:16;15.97;;;10.03;;
11524;SDS011;5819;49.648;8.330;2022-12-10T14:10:47;12.07;;;9.27;;
11524;SDS011;5819;49.648;8.330;2022-12-10T14:13:17;13.83;;;10.73;;
11524;SDS011;5819;49.648;8.330;2022-12-10T14:15:51;12.40;;;10.30;;
11524;SDS011;5819;49.648;8.330;2022-12-10T14:18:23;17.57;;;10.83;;
11524;SDS011;5819;49.648;8.330;2022-12-10T14:20:52;15.37;;;10.63;;
11524;SDS011;5819;49.648;8.330;2022-12-10T14:23:22;13.63;;;10.23;;
11524;SDS011;5819;49.648;8.330;2022-12-10T14:26:09;14.43;;;10.43;;
11524;SDS011;5819;49.648;8.330;2022-12-10T14:28:41;15.27;;;10.97;;
11524;SDS011;5819;49.648;8.330;2022-12-10T14:31:12;14.40;;;10.60;;
11524;SDS011;5819;49.648;8.330;2022-12-10T14:33:44;13.53;;;10.50;;
11524;SDS011;5819;49.648;8.330;2022-12-10T14:36:17;14.17;;;10.30;;
11524;SDS011;5819;49.648;8.330;2022-12-10T14:38:51;16.30;;;10.90;;
11524;SDS011;5819;49.648;8.330;2022-12-10T14:41:20;18.47;;;10.57;;
11524;SDS011;5819;49.648;8.330;2022-12-10T14:43:52;15.13;;;10.53;;
11524;SDS011;5819;49.648;8.330;2022-12-10T14:46:22;17.67;;;11.50;;
11524;SDS011;5819;49.648;8.330;2022-12-10T14:48:52;14.53;;;10.57;;
11524;SDS011;5819;49.648;8.330;2022-12-10T14:51:22;16.73;;;11.63;;
11524;SDS011;5819;49.648;8.330;2022-12-10T14:53:52;18.47;;;12.47;;
11524;SDS011;5819;49.648;8.330;2022-12-10T14:56:22;18.87;;;12.07;;
11524;SDS011;5819;49.648;8.330;2022-12-10T14:58:57;19.70;;;12.80;;
11524;SDS011;5819;49.648;8.330;2022-12-10T15:01:30;18.73;;;12.33;;
11524;SDS011;5819;49.648;8.330;2022-12-10T15:04:02;19.77;;;13.50;;
11524;SDS011;5819;49.648;8.330;2022-12-10T15:06:33;18.90;;;13.70;;
11524;SDS011;5819;49.648;8.330;2022-12-10T15:09:04;21.23;;;14.63;;
11524;SDS011;5819;49.648;8.330;2022-12-10T15:11:36;18.40;;;13.80;;
11524;SDS011;5819;49.648;8.330;2022-12-10T15:14:06;18.23;;;12.30;;
11524;SDS011;5819;49.648;8.330;2022-12-10T15:16:38;17.50;;;12.77;;
11524;SDS011;5819;49.648;8.330;2022-12-10T15:19:08;15.83;;;12.03;;
11524;SDS011;5819;49.648;8.330;2022-12-10T15:21:45;16.13;;;12.00;;
11524;SDS011;5819;49.648;8.330;2022-12-10T15:24:16;16.50;;;12.13;;